Terminal Aerodrome Forecast
Issued by NWS Blacksburg, VA

Home | Current Version | Previous Version | Text Only | Print | Product List | Glossary On
Versions: 1 2 3 4 5 6 7 8 9 10 11 12 13 14 15 16 17 18 19 20 21 22 23 24 25 26 27 28 29 30 31 32 33 34 35 36 37 38 39 40 41 42 43 44 45 46 47 48 49 50
000
FTUS41 KRNK 240520
TAFBLF
TAF
KBLF 240520Z 2406/2506 25005KT P6SM SKC
     FM240800 25004KT 4SM BR SCT120
      TEMPO 2409/2411 1SM BR SCT001
     FM241600 27008KT P6SM VCSH BKN050
     FM250200 VRB04KT P6SM SCT060=

USA.gov is the U.S. government's official web portal to all federal, state and local government web resources and services.